createdAt,value
2022-09-12T00:00:33.878Z,14.94
2022-09-12T00:01:33.939Z,14.87
2022-09-12T00:02:33.879Z,14.91
2022-09-12T00:03:33.848Z,14.88
2022-09-12T00:04:33.838Z,14.90
2022-09-12T00:05:33.834Z,14.87
2022-09-12T00:06:33.801Z,14.86
2022-09-12T00:07:33.833Z,14.87
2022-09-12T00:08:33.780Z,14.86
2022-09-12T00:09:33.831Z,14.86
2022-09-12T00:10:33.750Z,14.86
2022-09-12T00:11:33.741Z,14.84
2022-09-12T00:12:33.750Z,14.87
2022-09-12T00:13:35.546Z,14.88
2022-09-12T00:14:33.691Z,14.86
2022-09-12T00:15:33.693Z,14.86
2022-09-12T00:16:33.819Z,14.86
2022-09-12T00:17:33.708Z,14.88
2022-09-12T00:18:33.640Z,14.83
2022-09-12T00:19:33.631Z,14.83
2022-09-12T00:20:33.612Z,14.84
2022-09-12T00:21:33.603Z,14.78
2022-09-12T00:22:33.582Z,14.74
2022-09-12T00:23:33.603Z,14.72
2022-09-12T00:24:33.563Z,14.80
2022-09-12T00:25:33.571Z,14.72
2022-09-12T00:26:33.533Z,14.74
2022-09-12T00:27:33.521Z,14.71
2022-09-12T00:28:33.541Z,14.69
2022-09-12T00:29:33.496Z,14.72
2022-09-12T00:30:33.474Z,14.68
2022-09-12T00:31:33.500Z,14.67
2022-09-12T00:32:33.443Z,14.67
2022-09-12T00:33:33.474Z,14.67
2022-09-12T00:34:33.426Z,14.68
2022-09-12T00:35:33.416Z,14.65
2022-09-12T00:36:33.395Z,14.68
2022-09-12T00:37:33.457Z,14.68
2022-09-12T00:38:33.365Z,14.69
2022-09-12T00:39:33.355Z,14.67
2022-09-12T00:40:33.346Z,14.65
2022-09-12T00:41:33.341Z,14.65
2022-09-12T00:42:33.348Z,14.65
2022-09-12T00:43:33.306Z,14.65
2022-09-12T00:44:33.297Z,14.65
2022-09-12T00:45:33.297Z,14.62
2022-09-12T00:46:33.266Z,14.61
2022-09-12T00:47:33.296Z,14.62
2022-09-12T00:48:33.266Z,14.62
2022-09-12T00:49:33.227Z,14.57
2022-09-12T00:50:33.215Z,14.64
2022-09-12T00:51:33.199Z,14.61
2022-09-12T00:52:33.216Z,14.60
2022-09-12T00:53:33.166Z,14.57
2022-09-12T00:54:33.149Z,14.57
2022-09-12T00:55:33.138Z,14.53
2022-09-12T00:56:33.126Z,14.57
2022-09-12T00:57:33.139Z,14.56
2022-09-12T00:58:33.111Z,14.56
2022-09-12T00:59:33.080Z,14.57
2022-09-12T01:00:33.069Z,14.56
2022-09-12T01:01:33.166Z,14.53
2022-09-12T01:02:33.079Z,14.56
2022-09-12T01:03:33.029Z,14.53
2022-09-12T01:04:33.029Z,14.50
2022-09-12T01:05:33.002Z,14.53
2022-09-12T01:06:32.997Z,14.53
2022-09-12T01:07:35.818Z,14.54
2022-09-12T01:08:33.970Z,14.53
2022-09-12T01:09:32.954Z,14.53
2022-09-12T01:10:32.941Z,14.52
2022-09-12T01:11:32.922Z,14.50
2022-09-12T01:12:32.938Z,14.52
2022-09-12T01:13:32.893Z,14.49
2022-09-12T01:14:32.881Z,14.50
2022-09-12T01:15:32.882Z,14.52
2022-09-12T01:16:32.885Z,14.49
2022-09-12T01:17:32.927Z,14.52
2022-09-12T01:18:32.833Z,14.50
2022-09-12T01:19:32.803Z,14.49
2022-09-12T01:20:32.804Z,14.47
2022-09-12T01:21:32.782Z,14.50
2022-09-12T01:22:32.792Z,14.44
2022-09-12T01:23:32.764Z,14.46
2022-09-12T01:24:32.753Z,14.44
2022-09-12T01:25:32.725Z,14.46
2022-09-12T01:26:32.715Z,14.49
2022-09-12T01:27:32.732Z,14.46
2022-09-12T01:28:32.703Z,14.47
2022-09-12T01:29:32.675Z,14.47
2022-09-12T01:30:32.687Z,14.44
2022-09-12T01:31:32.655Z,14.46
2022-09-12T01:32:32.692Z,14.46
2022-09-12T01:33:32.613Z,14.49
2022-09-12T01:34:32.604Z,14.49
2022-09-12T01:35:32.599Z,14.44
2022-09-12T01:36:32.594Z,14.47
2022-09-12T01:37:32.587Z,14.49
2022-09-12T01:38:32.574Z,14.47
2022-09-12T01:39:32.545Z,14.47
2022-09-12T01:40:32.533Z,14.46
2022-09-12T01:41:32.516Z,14.50
2022-09-12T01:42:32.539Z,14.46
2022-09-12T01:43:32.485Z,14.46
2022-09-12T01:44:32.478Z,14.47
2022-09-12T01:45:32.500Z,14.52
2022-09-12T01:46:32.474Z,14.49
2022-09-12T01:47:32.475Z,14.47
2022-09-12T01:48:32.417Z,14.47
2022-09-12T01:49:32.397Z,14.50
2022-09-12T01:50:32.396Z,14.53
2022-09-12T01:51:32.376Z,14.50
2022-09-12T01:52:32.387Z,14.50
2022-09-12T01:53:32.347Z,14.52
2022-09-12T01:54:32.428Z,14.52
2022-09-12T01:55:32.319Z,14.56
2022-09-12T01:56:32.312Z,14.53
2022-09-12T01:57:32.317Z,14.53
2022-09-12T01:58:32.356Z,14.54
2022-09-12T01:59:32.280Z,14.53
2022-09-12T02:00:32.259Z,14.54
2022-09-12T02:01:32.292Z,14.56
2022-09-12T02:02:32.270Z,14.60
2022-09-12T02:03:32.210Z,14.54
2022-09-12T02:04:34.315Z,14.56
2022-09-12T02:05:32.184Z,14.54
2022-09-12T02:06:32.192Z,14.56
2022-09-12T02:07:32.212Z,14.56
2022-09-12T02:08:32.171Z,14.60
2022-09-12T02:09:32.140Z,14.56
2022-09-12T02:10:32.802Z,14.53
2022-09-12T02:11:32.147Z,14.54
2022-09-12T02:12:32.103Z,14.57
2022-09-12T02:13:32.098Z,14.53
2022-09-12T02:14:32.081Z,14.56
2022-09-12T02:15:32.101Z,14.53
2022-09-12T02:16:32.126Z,14.54
2022-09-12T02:17:32.026Z,14.54
2022-09-12T02:18:32.051Z,14.54
2022-09-12T02:19:31.992Z,14.52
2022-09-12T02:20:47.325Z,14.53
2022-09-12T02:21:32.979Z,14.53
2022-09-12T02:22:31.974Z,14.52
2022-09-12T02:23:31.964Z,14.47
2022-09-12T02:24:31.943Z,14.47
2022-09-12T02:25:31.914Z,14.47
2022-09-12T02:26:31.917Z,14.50
2022-09-12T02:27:31.884Z,14.49
2022-09-12T02:28:31.905Z,14.47
2022-09-12T02:29:31.867Z,14.47
2022-09-12T02:30:31.871Z,14.49
2022-09-12T02:31:31.832Z,14.50
2022-09-12T02:32:31.826Z,14.52
2022-09-12T02:33:31.844Z,14.57
2022-09-12T02:34:31.794Z,14.56
2022-09-12T02:35:31.824Z,14.60
2022-09-12T02:36:31.765Z,14.60
2022-09-12T02:37:31.764Z,14.60
2022-09-12T02:38:31.774Z,14.62
2022-09-12T02:39:31.724Z,14.61
2022-09-12T02:40:31.713Z,14.57
2022-09-12T02:41:31.695Z,14.61
2022-09-12T02:42:31.688Z,14.64
2022-09-12T02:43:31.694Z,14.61
2022-09-12T02:44:31.674Z,14.62
2022-09-12T02:45:31.706Z,14.60
2022-09-12T02:46:31.626Z,14.57
2022-09-12T02:47:31.618Z,14.57
2022-09-12T02:48:31.664Z,14.57
2022-09-12T02:49:31.587Z,14.60
2022-09-12T02:50:31.638Z,14.60
2022-09-12T02:51:31.558Z,14.60
2022-09-12T02:52:31.549Z,14.53
2022-09-12T02:53:31.578Z,14.56
2022-09-12T02:54:31.679Z,14.54
2022-09-12T02:55:31.506Z,14.53
2022-09-12T02:56:31.499Z,14.53
2022-09-12T02:57:31.488Z,14.53
2022-09-12T02:58:31.494Z,14.53
2022-09-12T02:59:31.449Z,14.50
2022-09-12T03:00:31.478Z,14.56
2022-09-12T03:01:31.493Z,14.52
2022-09-12T03:02:31.417Z,14.49
2022-09-12T03:03:31.419Z,14.50
2022-09-12T03:04:31.389Z,14.53
2022-09-12T03:05:31.370Z,14.49
2022-09-12T03:06:31.380Z,14.53
2022-09-12T03:07:31.347Z,14.50
2022-09-12T03:08:31.359Z,14.49
2022-09-12T03:09:31.311Z,14.49
2022-09-12T03:10:31.308Z,14.46
2022-09-12T03:11:31.291Z,14.42
2022-09-12T03:12:31.313Z,14.44
2022-09-12T03:13:31.261Z,14.44
2022-09-12T03:14:31.260Z,14.44
2022-09-12T03:15:31.231Z,14.43
2022-09-12T03:16:31.267Z,14.43
2022-09-12T03:17:31.239Z,14.44
2022-09-12T03:18:31.199Z,14.42
2022-09-12T03:19:31.182Z,14.42
2022-09-12T03:20:31.170Z,14.39
2022-09-12T03:21:31.152Z,14.42
2022-09-12T03:22:31.172Z,14.42
2022-09-12T03:23:31.123Z,14.38
2022-09-12T03:24:31.113Z,14.39
2022-09-12T03:25:31.093Z,14.43
2022-09-12T03:26:31.092Z,14.44
2022-09-12T03:27:31.151Z,14.43
2022-09-12T03:28:31.063Z,14.39
2022-09-12T03:29:31.044Z,14.42
2022-09-12T03:30:31.071Z,14.38
2022-09-12T03:31:31.016Z,14.39
2022-09-12T03:32:31.034Z,14.42
2022-09-12T03:33:30.984Z,14.42
2022-09-12T03:34:30.984Z,14.38
2022-09-12T03:35:30.966Z,14.38
2022-09-12T03:36:30.957Z,14.42
2022-09-12T03:37:30.955Z,14.38
2022-09-12T03:38:30.926Z,14.37
2022-09-12T03:39:30.912Z,14.37
2022-09-12T03:40:30.896Z,14.35
2022-09-12T03:41:30.885Z,14.38
2022-09-12T03:42:30.898Z,14.42
2022-09-12T03:43:30.856Z,14.38
2022-09-12T03:44:30.844Z,14.42
2022-09-12T03:45:30.847Z,14.42
2022-09-12T03:46:30.817Z,14.42
2022-09-12T03:47:30.828Z,14.43
2022-09-12T03:48:30.807Z,14.42
2022-09-12T03:49:30.778Z,14.42
2022-09-12T03:50:30.766Z,14.38
2022-09-12T03:51:30.747Z,14.39
2022-09-12T03:52:30.769Z,14.37
2022-09-12T03:53:30.722Z,14.38
2022-09-12T03:54:30.710Z,14.37
2022-09-12T03:55:30.689Z,14.39
2022-09-12T03:56:30.696Z,14.42
2022-09-12T03:57:30.669Z,14.44
2022-09-12T03:58:30.710Z,14.44
2022-09-12T03:59:30.637Z,14.44
2022-09-12T04:00:30.629Z,14.43
2022-09-12T04:01:30.671Z,14.44
2022-09-12T04:02:30.637Z,14.46
2022-09-12T04:03:30.609Z,14.44
2022-09-12T04:04:30.577Z,14.47
2022-09-12T04:05:30.557Z,14.46
2022-09-12T04:06:30.563Z,14.47
2022-09-12T04:07:30.530Z,14.52
2022-09-12T04:08:30.541Z,14.50
2022-09-12T04:09:30.511Z,14.50
2022-09-12T04:10:30.491Z,14.50
2022-09-12T04:11:30.470Z,14.50
2022-09-12T04:12:30.464Z,14.52
2022-09-12T04:13:30.485Z,14.47
2022-09-12T04:14:30.438Z,14.44
2022-09-12T04:15:30.420Z,14.44
2022-09-12T04:16:30.455Z,14.44
2022-09-12T04:17:30.401Z,14.44
2022-09-12T04:18:30.410Z,14.46
2022-09-12T04:19:30.362Z,14.44
2022-09-12T04:20:30.370Z,14.46
2022-09-12T04:21:30.355Z,14.49
2022-09-12T04:22:30.343Z,14.44
2022-09-12T04:23:30.337Z,14.42
2022-09-12T04:24:30.304Z,14.43
2022-09-12T04:25:30.283Z,14.43
2022-09-12T04:26:30.273Z,14.44
2022-09-12T04:27:30.262Z,14.43
2022-09-12T04:28:30.273Z,14.44
2022-09-12T04:29:30.232Z,14.42
2022-09-12T04:30:30.252Z,14.43
2022-09-12T04:31:30.204Z,14.44
2022-09-12T04:32:30.195Z,14.49
2022-09-12T04:33:30.205Z,14.47
2022-09-12T04:34:30.173Z,14.49
2022-09-12T04:35:30.145Z,14.46
2022-09-12T04:36:30.135Z,14.49
2022-09-12T04:37:30.115Z,14.47
2022-09-12T04:38:30.136Z,14.47
2022-09-12T04:39:30.116Z,14.47
2022-09-12T04:40:30.085Z,14.54
2022-09-12T04:41:30.067Z,14.53
2022-09-12T04:42:30.057Z,14.52
2022-09-12T04:43:30.068Z,14.52
2022-09-12T04:44:30.026Z,14.52
2022-09-12T04:45:30.080Z,14.49
2022-09-12T04:46:30.005Z,14.53
2022-09-12T04:47:29.999Z,14.52
2022-09-12T04:48:30.008Z,14.61
2022-09-12T04:49:29.958Z,14.53
2022-09-12T04:50:29.949Z,14.53
2022-09-12T04:51:29.948Z,14.57
2022-09-12T04:52:29.924Z,14.60
2022-09-12T04:53:29.926Z,14.61
2022-09-12T04:54:29.904Z,14.62
2022-09-12T04:55:29.879Z,14.60
2022-09-12T04:56:29.858Z,14.61
2022-09-12T04:57:29.859Z,14.64
2022-09-12T04:58:29.858Z,14.61
2022-09-12T04:59:29.839Z,14.61
2022-09-12T05:00:29.843Z,14.57
2022-09-12T05:01:29.839Z,14.54
2022-09-12T05:02:29.826Z,14.57
2022-09-12T05:03:29.807Z,14.60
2022-09-12T05:04:29.749Z,14.65
2022-09-12T05:05:29.742Z,14.67
2022-09-12T05:06:29.740Z,14.65
2022-09-12T05:07:29.728Z,14.64
2022-09-12T05:08:29.727Z,14.67
2022-09-12T05:09:29.692Z,14.65
2022-09-12T05:10:29.671Z,14.67
2022-09-12T05:11:46.869Z,14.68
2022-09-12T05:12:30.641Z,14.68
2022-09-12T05:13:29.725Z,14.71
2022-09-12T05:14:29.619Z,14.69
2022-09-12T05:15:29.620Z,14.71
2022-09-12T05:16:29.634Z,14.74
2022-09-12T05:17:29.617Z,14.68
2022-09-12T05:18:29.562Z,14.69
2022-09-12T05:19:29.552Z,14.72
2022-09-12T05:20:29.553Z,14.74
2022-09-12T05:21:29.523Z,14.74
2022-09-12T05:22:29.543Z,14.78
2022-09-12T05:23:29.493Z,14.75
2022-09-12T05:24:29.524Z,14.78
2022-09-12T05:25:29.474Z,14.83
2022-09-12T05:26:29.454Z,14.84
2022-09-12T05:27:29.445Z,14.81
2022-09-12T05:28:29.457Z,14.80
2022-09-12T05:29:29.434Z,14.86
2022-09-12T05:30:29.464Z,14.86
2022-09-12T05:31:29.384Z,14.86
2022-09-12T05:32:29.386Z,14.87
2022-09-12T05:33:29.393Z,14.88
2022-09-12T05:34:29.343Z,14.90
2022-09-12T05:35:29.341Z,14.93
2022-09-12T05:36:29.344Z,14.93
2022-09-12T05:37:29.305Z,14.95
2022-09-12T05:38:29.316Z,14.94
2022-09-12T05:39:29.287Z,14.94
2022-09-12T05:40:29.256Z,14.99
2022-09-12T05:41:29.254Z,15.02
2022-09-12T05:42:29.228Z,15.03
2022-09-12T05:43:29.289Z,15.03
2022-09-12T05:44:29.225Z,15.09
2022-09-12T05:45:29.197Z,15.08
2022-09-12T05:46:29.187Z,15.12
2022-09-12T05:47:29.182Z,15.11
2022-09-12T05:48:29.178Z,15.13
2022-09-12T05:49:29.148Z,15.13
2022-09-12T05:50:29.128Z,15.15
2022-09-12T05:51:29.119Z,15.19
2022-09-12T05:52:29.096Z,15.24
2022-09-12T05:53:29.111Z,15.24
2022-09-12T05:54:31.685Z,15.27
2022-09-12T05:55:29.069Z,15.31
2022-09-12T05:56:29.039Z,15.30
2022-09-12T05:57:29.089Z,15.36
2022-09-12T05:58:29.039Z,15.36
2022-09-12T05:59:29.009Z,15.38
2022-09-12T06:00:33.321Z,15.43
2022-09-12T06:01:29.024Z,15.41
2022-09-12T06:02:28.973Z,15.43
2022-09-12T06:03:28.977Z,15.41
2022-09-12T06:04:28.941Z,15.43
2022-09-12T06:05:28.931Z,15.49
2022-09-12T06:06:28.920Z,15.45
2022-09-12T06:07:28.900Z,15.48
2022-09-12T06:08:28.924Z,15.51
2022-09-12T06:09:28.872Z,15.49
2022-09-12T06:10:28.851Z,15.52
2022-09-12T06:11:28.864Z,15.57
2022-09-12T06:12:28.822Z,15.59
2022-09-12T06:13:28.842Z,15.60
2022-09-12T06:14:28.812Z,15.67
2022-09-12T06:15:28.789Z,15.68
2022-09-12T06:16:28.876Z,15.68
2022-09-12T06:17:28.762Z,15.70
2022-09-12T06:18:28.763Z,15.76
2022-09-12T06:19:28.743Z,15.78
2022-09-12T06:20:28.714Z,15.79
2022-09-12T06:21:28.725Z,15.81
2022-09-12T06:22:28.693Z,15.82
2022-09-12T06:23:28.714Z,15.88
2022-09-12T06:24:28.664Z,15.85
2022-09-12T06:25:28.670Z,15.92
2022-09-12T06:26:28.637Z,15.97
2022-09-12T06:27:28.646Z,15.97
2022-09-12T06:28:28.662Z,16.00
2022-09-12T06:29:28.612Z,16.03
2022-09-12T06:30:28.674Z,16.06
2022-09-12T06:31:28.573Z,16.04
2022-09-12T06:32:28.556Z,16.04
2022-09-12T06:33:28.575Z,16.06
2022-09-12T06:34:28.526Z,16.06
2022-09-12T06:35:28.516Z,16.11
2022-09-12T06:36:28.503Z,16.15
2022-09-12T06:37:28.497Z,16.14
2022-09-12T06:38:28.517Z,16.15
2022-09-12T06:39:28.474Z,16.26
2022-09-12T06:40:28.446Z,16.23
2022-09-12T06:41:28.447Z,16.25
2022-09-12T06:42:28.427Z,16.31
2022-09-12T06:43:28.435Z,16.27
2022-09-12T06:44:28.389Z,16.34
2022-09-12T06:45:28.378Z,16.37
2022-09-12T06:46:28.374Z,16.41
2022-09-12T06:47:28.356Z,16.49
2022-09-12T06:48:28.359Z,16.50
2022-09-12T06:49:28.358Z,16.50
2022-09-12T06:50:28.320Z,16.53
2022-09-12T06:51:28.300Z,16.59
2022-09-12T06:52:28.280Z,16.60
2022-09-12T06:53:28.309Z,16.65
2022-09-12T06:54:28.260Z,16.68
2022-09-12T06:55:28.250Z,16.68
2022-09-12T06:56:28.259Z,16.71
2022-09-12T06:57:28.237Z,16.74
2022-09-12T06:58:28.221Z,16.74
2022-09-12T06:59:28.201Z,16.74
2022-09-12T07:00:28.171Z,16.71
2022-09-12T07:01:28.204Z,16.75
2022-09-12T07:02:28.176Z,16.80
2022-09-12T07:03:28.162Z,16.86
2022-09-12T07:04:28.125Z,16.89
2022-09-12T07:05:28.120Z,16.90
2022-09-12T07:06:28.092Z,16.93
2022-09-12T07:07:28.102Z,16.98
2022-09-12T07:08:28.064Z,17.00
2022-09-12T07:09:28.054Z,16.99
2022-09-12T07:10:28.034Z,17.06
2022-09-12T07:11:28.030Z,17.04
2022-09-12T07:12:28.034Z,17.03
2022-09-12T07:13:28.001Z,17.04
2022-09-12T07:14:27.981Z,17.04
2022-09-12T07:15:27.974Z,17.04
2022-09-12T07:16:27.990Z,16.93
2022-09-12T07:17:27.995Z,16.92
2022-09-12T07:18:27.955Z,16.90
2022-09-12T07:19:27.921Z,16.90
2022-09-12T07:20:27.905Z,16.90
2022-09-12T07:21:27.885Z,16.89
2022-09-12T07:22:27.895Z,16.93
2022-09-12T07:23:27.864Z,16.93
2022-09-12T07:24:27.855Z,16.95
2022-09-12T07:25:27.836Z,16.92
2022-09-12T07:26:27.819Z,16.92
2022-09-12T07:27:27.836Z,16.95
2022-09-12T07:28:27.795Z,16.98
2022-09-12T07:29:43.131Z,17.00
2022-09-12T07:30:28.797Z,17.08
2022-09-12T07:31:27.760Z,17.11
2022-09-12T07:32:27.758Z,17.18
2022-09-12T07:33:27.746Z,17.20
2022-09-12T07:34:27.709Z,17.22
2022-09-12T07:35:27.706Z,17.18
2022-09-12T07:36:27.690Z,17.22
2022-09-12T07:37:27.700Z,17.23
2022-09-12T07:38:27.660Z,17.28
2022-09-12T07:39:27.647Z,17.36
2022-09-12T07:40:27.638Z,17.41
2022-09-12T07:41:27.647Z,17.41
2022-09-12T07:42:27.629Z,17.41
2022-09-12T07:43:27.598Z,17.43
2022-09-12T07:44:27.581Z,17.44
2022-09-12T07:45:27.570Z,17.50
2022-09-12T07:46:27.551Z,17.59
2022-09-12T07:47:27.568Z,17.57
2022-09-12T07:48:28.502Z,17.63
2022-09-12T07:49:27.529Z,17.63
2022-09-12T07:50:27.492Z,17.67
2022-09-12T07:51:27.512Z,17.69
2022-09-12T07:52:27.464Z,17.70
2022-09-12T07:53:27.461Z,17.73
2022-09-12T07:54:27.443Z,17.70
2022-09-12T07:55:27.431Z,17.67
2022-09-12T07:56:30.561Z,17.70
2022-09-12T07:57:27.416Z,17.74
2022-09-12T07:58:27.384Z,17.71
2022-09-12T07:59:50.787Z,17.74
2022-09-12T08:00:28.355Z,17.74
2022-09-12T08:01:27.392Z,17.73
2022-09-12T08:02:27.407Z,17.76
2022-09-12T08:03:27.322Z,17.76
2022-09-12T08:04:27.302Z,17.78
2022-09-12T08:05:27.303Z,17.71
2022-09-12T08:06:27.273Z,17.73
2022-09-12T08:07:27.285Z,17.78
2022-09-12T08:08:27.261Z,17.76
2022-09-12T08:09:27.237Z,17.78
2022-09-12T08:10:27.216Z,17.78
2022-09-12T08:11:27.217Z,17.71
2022-09-12T08:12:27.217Z,17.71
2022-09-12T08:13:27.196Z,17.76
2022-09-12T08:14:27.169Z,17.76
2022-09-12T08:15:27.227Z,17.74
2022-09-12T08:16:27.139Z,17.82
2022-09-12T08:17:27.191Z,17.84
2022-09-12T08:18:27.108Z,17.88
2022-09-12T08:19:27.108Z,17.89
2022-09-12T08:20:28.509Z,17.89
2022-09-12T08:21:27.087Z,17.95
2022-09-12T08:22:27.098Z,17.99
2022-09-12T08:23:27.050Z,18.02
2022-09-12T08:24:27.038Z,18.06
2022-09-12T08:25:27.019Z,18.09
2022-09-12T08:26:26.999Z,18.15
2022-09-12T08:27:27.044Z,18.19
2022-09-12T08:28:26.976Z,18.24
2022-09-12T08:29:26.982Z,18.31
2022-09-12T08:30:26.951Z,18.40
2022-09-12T08:31:26.958Z,18.43
2022-09-12T08:32:26.951Z,18.55
2022-09-12T08:33:26.913Z,18.59
2022-09-12T08:34:26.890Z,18.70
2022-09-12T08:35:26.884Z,18.72
2022-09-12T08:36:26.874Z,18.72
2022-09-12T08:37:26.892Z,18.73
2022-09-12T08:38:26.844Z,18.77
2022-09-12T08:39:26.833Z,18.77
2022-09-12T08:40:26.813Z,18.80
2022-09-12T08:41:26.803Z,18.84
2022-09-12T08:42:26.814Z,18.94
2022-09-12T08:43:26.776Z,18.99
2022-09-12T08:44:26.783Z,19.08
2022-09-12T08:45:26.755Z,19.18
2022-09-12T08:46:26.817Z,19.32
2022-09-12T08:47:26.723Z,19.47
2022-09-12T08:48:26.718Z,19.57
2022-09-12T08:49:26.703Z,19.65
2022-09-12T08:50:26.677Z,19.69
2022-09-12T08:51:26.705Z,19.75
2022-09-12T08:52:26.655Z,19.86
2022-09-12T08:53:26.636Z,19.90
2022-09-12T08:54:26.635Z,19.91
2022-09-12T08:55:26.616Z,19.98
2022-09-12T08:56:31.423Z,20.00
2022-09-12T08:57:27.616Z,19.94
2022-09-12T08:58:26.574Z,19.88
2022-09-12T08:59:26.576Z,19.90
2022-09-12T09:00:26.548Z,19.95
2022-09-12T09:01:26.604Z,19.98
2022-09-12T09:02:26.638Z,20.00
2022-09-12T09:03:26.508Z,19.98
2022-09-12T09:04:28.792Z,20.00
2022-09-12T09:05:26.481Z,20.03
2022-09-12T09:06:26.478Z,19.97
2022-09-12T09:07:26.449Z,19.90
2022-09-12T09:08:26.440Z,19.90
2022-09-12T09:09:26.421Z,19.90
2022-09-12T09:10:26.410Z,19.95
2022-09-12T09:11:26.416Z,19.97
2022-09-12T09:12:26.382Z,19.91
2022-09-12T09:13:26.360Z,19.94
2022-09-12T09:14:26.351Z,19.90
2022-09-12T09:15:26.415Z,19.91
2022-09-12T09:16:26.351Z,19.87
2022-09-12T09:17:26.311Z,19.91
2022-09-12T09:18:26.299Z,19.88
2022-09-12T09:19:26.283Z,19.93
2022-09-12T09:20:26.302Z,19.90
2022-09-12T09:21:26.279Z,19.86
2022-09-12T09:22:26.264Z,19.84
2022-09-12T09:23:26.246Z,19.80
2022-09-12T09:24:26.214Z,19.80
2022-09-12T09:25:26.204Z,19.73
2022-09-12T09:26:26.234Z,19.78
2022-09-12T09:27:39.998Z,19.80
2022-09-12T09:28:27.180Z,19.88
2022-09-12T09:29:26.146Z,19.93
2022-09-12T09:30:26.135Z,20.02
2022-09-12T09:31:26.212Z,20.08
2022-09-12T09:32:26.114Z,20.13
2022-09-12T09:33:26.097Z,20.16
2022-09-12T09:34:26.087Z,20.21
2022-09-12T09:35:26.074Z,20.24
2022-09-12T09:36:26.084Z,20.33
2022-09-12T09:37:26.046Z,20.35
2022-09-12T09:38:26.035Z,20.41
2022-09-12T09:39:26.007Z,20.50
2022-09-12T09:40:26.015Z,20.56
2022-09-12T09:41:26.018Z,20.61
2022-09-12T09:42:26.001Z,20.64
2022-09-12T09:43:25.958Z,20.66
2022-09-12T09:44:25.949Z,20.72
2022-09-12T09:45:25.931Z,20.77
2022-09-12T09:46:26.062Z,20.83
2022-09-12T09:47:25.900Z,20.87
2022-09-12T09:48:25.897Z,20.90
2022-09-12T09:49:25.878Z,20.96
2022-09-12T09:50:25.880Z,21.02
2022-09-12T09:51:25.879Z,21.06
2022-09-12T09:52:25.841Z,21.16
2022-09-12T09:53:25.820Z,21.16
2022-09-12T09:54:25.824Z,21.21
2022-09-12T09:55:25.793Z,21.21
2022-09-12T09:56:25.812Z,21.27
2022-09-12T09:57:25.773Z,21.35
2022-09-12T09:58:25.766Z,21.35
2022-09-12T09:59:25.750Z,21.34
2022-09-12T10:00:25.735Z,21.35
2022-09-12T10:01:25.780Z,21.27
2022-09-12T10:02:25.741Z,21.30
2022-09-12T10:03:25.684Z,21.36
2022-09-12T10:04:25.674Z,21.39
2022-09-12T10:05:25.677Z,21.42
2022-09-12T10:06:25.675Z,21.46
2022-09-12T10:07:25.646Z,21.54
2022-09-12T10:08:25.625Z,21.57
2022-09-12T10:09:25.605Z,21.57
2022-09-12T10:10:25.616Z,21.61
2022-09-12T10:11:25.605Z,21.63
2022-09-12T10:12:25.583Z,21.71
2022-09-12T10:13:25.564Z,21.71
2022-09-12T10:14:25.548Z,21.71
2022-09-12T10:15:25.536Z,21.76
2022-09-12T10:16:25.537Z,21.81
2022-09-12T10:17:25.508Z,21.81
2022-09-12T10:18:25.490Z,21.82
2022-09-12T10:19:25.469Z,21.88
2022-09-12T10:20:25.474Z,21.88
2022-09-12T10:21:25.468Z,21.97
2022-09-12T10:22:25.439Z,22.01
2022-09-12T10:23:25.423Z,22.02
2022-09-12T10:24:25.410Z,22.04
2022-09-12T10:25:25.391Z,22.12
2022-09-12T10:26:25.418Z,22.04
2022-09-12T10:27:25.389Z,22.14
2022-09-12T10:28:25.350Z,22.17
2022-09-12T10:29:25.341Z,22.22
2022-09-12T10:30:25.373Z,22.23
2022-09-12T10:31:25.332Z,22.22
2022-09-12T10:32:29.960Z,22.23
2022-09-12T10:33:26.284Z,22.31
2022-09-12T10:34:25.286Z,22.35
2022-09-12T10:35:25.260Z,22.44
2022-09-12T10:36:25.270Z,22.49
2022-09-12T10:37:25.224Z,22.64
2022-09-12T10:38:25.221Z,22.82
2022-09-12T10:39:25.198Z,23.14
2022-09-12T10:40:25.257Z,23.53
2022-09-12T10:41:25.203Z,24.13
2022-09-12T10:42:25.165Z,24.67
2022-09-12T10:43:25.145Z,25.28
2022-09-12T10:44:25.136Z,25.82
2022-09-12T10:45:25.124Z,26.46
2022-09-12T10:46:25.222Z,27.01
2022-09-12T10:47:25.100Z,27.50
2022-09-12T10:48:25.084Z,27.53
2022-09-12T10:49:25.068Z,27.74
2022-09-12T10:50:25.058Z,28.16
2022-09-12T10:51:25.068Z,28.51
2022-09-12T10:52:25.031Z,28.69
2022-09-12T10:53:25.016Z,28.80
2022-09-12T10:54:25.027Z,29.01
2022-09-12T10:55:24.990Z,28.88
2022-09-12T10:56:25.001Z,29.13
2022-09-12T10:57:24.959Z,29.38
2022-09-12T10:58:24.954Z,29.60
2022-09-12T10:59:24.931Z,29.65
2022-09-12T11:00:24.921Z,29.81
2022-09-12T11:01:24.961Z,29.77
2022-09-12T11:02:24.955Z,29.92
2022-09-12T11:03:24.884Z,30.03
2022-09-12T11:04:24.893Z,30.21
2022-09-12T11:05:24.853Z,30.36
2022-09-12T11:06:24.882Z,30.56
2022-09-12T11:07:24.827Z,30.56
2022-09-12T11:08:24.843Z,30.37
2022-09-12T11:09:24.804Z,30.49
2022-09-12T11:10:24.796Z,30.45
2022-09-12T11:11:24.803Z,30.52
2022-09-12T11:12:24.765Z,30.56
2022-09-12T11:13:24.751Z,30.14
2022-09-12T11:14:24.745Z,30.12
2022-09-12T11:15:24.727Z,30.29
2022-09-12T11:16:24.737Z,30.62
2022-09-12T11:17:24.698Z,30.34
2022-09-12T11:18:24.688Z,30.40
2022-09-12T11:19:24.676Z,30.37
2022-09-12T11:20:24.679Z,30.33
2022-09-12T11:21:24.670Z,30.43
2022-09-12T11:22:26.770Z,30.59
2022-09-12T11:23:25.621Z,30.37
2022-09-12T11:24:24.611Z,30.05
2022-09-12T11:25:24.593Z,30.05
2022-09-12T11:26:24.612Z,30.26
2022-09-12T11:27:24.574Z,30.61
2022-09-12T11:28:24.565Z,30.68
2022-09-12T11:29:24.567Z,30.75
2022-09-12T11:30:24.532Z,30.99
2022-09-12T11:31:24.555Z,30.80
2022-09-12T11:32:24.512Z,30.80
2022-09-12T11:33:24.494Z,30.67
2022-09-12T11:34:24.487Z,31.02
2022-09-12T11:35:24.474Z,31.33
2022-09-12T11:36:24.496Z,31.46
2022-09-12T11:37:24.454Z,31.30
2022-09-12T11:38:24.444Z,31.04
2022-09-12T11:39:24.418Z,31.05
2022-09-12T11:40:24.554Z,31.26
2022-09-12T11:41:24.418Z,31.24
2022-09-12T11:42:24.390Z,31.18
2022-09-12T11:43:24.379Z,31.30
2022-09-12T11:44:24.360Z,31.26
2022-09-12T11:45:24.360Z,31.46
2022-09-12T11:46:24.392Z,31.15
2022-09-12T11:47:24.320Z,31.05
2022-09-12T11:48:24.311Z,31.43
2022-09-12T11:49:24.300Z,31.62
2022-09-12T11:50:24.285Z,31.65
2022-09-12T11:51:24.310Z,31.75
2022-09-12T11:52:24.272Z,31.70
2022-09-12T11:53:24.243Z,31.62
2022-09-12T11:54:24.243Z,31.65
2022-09-12T11:55:24.221Z,31.91
2022-09-12T11:56:24.242Z,31.93
2022-09-12T11:57:24.195Z,31.99
2022-09-12T11:58:24.194Z,31.87
2022-09-12T11:59:24.177Z,31.64
2022-09-12T12:00:24.166Z,31.53
2022-09-12T12:01:24.178Z,31.49
2022-09-12T12:02:24.207Z,31.79
2022-09-12T12:03:24.175Z,31.73
2022-09-12T12:04:24.120Z,31.80
2022-09-12T12:05:24.110Z,31.76
2022-09-12T12:06:24.118Z,31.88
2022-09-12T12:07:24.081Z,31.45
2022-09-12T12:08:24.071Z,31.50
2022-09-12T12:09:24.050Z,31.54
2022-09-12T12:10:24.040Z,31.36
2022-09-12T12:11:24.071Z,31.33
2022-09-12T12:12:24.022Z,31.33
2022-09-12T12:13:24.005Z,31.48
2022-09-12T12:14:24.002Z,31.31
2022-09-12T12:15:23.993Z,31.28
2022-09-12T12:16:24.065Z,31.20
2022-09-12T12:17:23.964Z,31.01
2022-09-12T12:18:23.964Z,31.02
2022-09-12T12:19:23.935Z,30.93
2022-09-12T12:20:23.939Z,30.80
2022-09-12T12:21:23.935Z,30.83
2022-09-12T12:22:23.909Z,30.21
2022-09-12T12:23:23.888Z,30.16
2022-09-12T12:24:23.909Z,30.45
2022-09-12T12:25:27.571Z,30.61
2022-09-12T12:26:24.879Z,30.49
2022-09-12T12:27:23.837Z,30.59
2022-09-12T12:28:23.829Z,30.65
2022-09-12T12:29:23.809Z,30.36
2022-09-12T12:30:23.808Z,30.30
2022-09-12T12:31:23.914Z,30.49
2022-09-12T12:32:23.801Z,30.62
2022-09-12T12:33:23.769Z,30.67
2022-09-12T12:34:23.754Z,30.52
2022-09-12T12:35:23.750Z,30.27
2022-09-12T12:36:23.764Z,30.21
2022-09-12T12:37:23.712Z,30.05
2022-09-12T12:38:23.713Z,29.92
2022-09-12T12:39:23.693Z,29.82
2022-09-12T12:40:23.744Z,29.68
2022-09-12T12:41:23.685Z,29.62
2022-09-12T12:42:23.655Z,29.50
2022-09-12T12:43:23.644Z,29.44
2022-09-12T12:44:23.636Z,29.28
2022-09-12T12:45:23.617Z,29.19
2022-09-12T12:46:23.653Z,29.13
2022-09-12T12:47:23.586Z,28.97
2022-09-12T12:48:23.587Z,28.88
2022-09-12T12:49:23.577Z,28.77
2022-09-12T12:50:23.557Z,28.69
2022-09-12T12:51:23.582Z,28.50
2022-09-12T12:52:23.550Z,28.43